sensor_id;sensor_type;location;lat;lon;timestamp;pressure;altitude;pressure_sealevel;temperature;humidity
26775;BME280;14362;51.902;7.626;2023-12-20T00:01:54;100894.19;;;5.66;91.31
26775;BME280;14362;51.902;7.626;2023-12-20T00:05:55;100895.91;;;5.62;91.14
26775;BME280;14362;51.902;7.626;2023-12-20T00:09:57;100919.41;;;5.60;91.25
26775;BME280;14362;51.902;7.626;2023-12-20T00:13:58;100917.66;;;5.58;92.08
26775;BME280;14362;51.902;7.626;2023-12-20T00:18:01;100922.00;;;5.59;91.85
26775;BME280;14362;51.902;7.626;2023-12-20T00:22:02;100908.97;;;5.64;91.85
26775;BME280;14362;51.902;7.626;2023-12-20T00:26:04;100921.16;;;5.66;91.63
26775;BME280;14362;51.902;7.626;2023-12-20T00:30:06;100928.13;;;5.70;91.87
26775;BME280;14362;51.902;7.626;2023-12-20T00:34:09;100930.72;;;5.72;92.18
26775;BME280;14362;51.902;7.626;2023-12-20T00:38:11;100930.75;;;5.80;92.11
26775;BME280;14362;51.902;7.626;2023-12-20T00:42:12;100937.72;;;5.79;91.97
26775;BME280;14362;51.902;7.626;2023-12-20T00:46:14;100933.38;;;5.81;91.93
26775;BME280;14362;51.902;7.626;2023-12-20T00:50:16;100943.81;;;5.80;91.59
26775;BME280;14362;51.902;7.626;2023-12-20T00:54:18;100938.59;;;5.76;91.58
26775;BME280;14362;51.902;7.626;2023-12-20T00:58:19;100929.00;;;5.74;91.45
26775;BME280;14362;51.902;7.626;2023-12-20T01:02:21;100936.81;;;5.65;91.64
26775;BME280;14362;51.902;7.626;2023-12-20T01:06:23;100934.19;;;5.55;91.36
26775;BME280;14362;51.902;7.626;2023-12-20T01:10:25;100931.56;;;5.54;91.55
26775;BME280;14362;51.902;7.626;2023-12-20T01:14:28;100930.69;;;5.55;91.56
26775;BME280;14362;51.902;7.626;2023-12-20T01:18:29;100931.53;;;5.44;91.75
26775;BME280;14362;51.902;7.626;2023-12-20T01:22:32;100921.09;;;5.38;91.06
26775;BME280;14362;51.902;7.626;2023-12-20T01:26:35;100939.34;;;5.27;91.04
26775;BME280;14362;51.902;7.626;2023-12-20T01:30:37;100941.94;;;5.24;90.92
26775;BME280;14362;51.902;7.626;2023-12-20T01:34:38;100939.31;;;5.18;90.67
26775;BME280;14362;51.902;7.626;2023-12-20T01:38:41;100927.97;;;5.15;90.70
26775;BME280;14362;51.902;7.626;2023-12-20T01:42:42;100943.63;;;5.15;90.77
26775;BME280;14362;51.902;7.626;2023-12-20T01:46:45;100929.72;;;5.17;91.19
26775;BME280;14362;51.902;7.626;2023-12-20T01:50:47;100935.84;;;5.18;90.92
26775;BME280;14362;51.902;7.626;2023-12-20T01:54:50;100930.59;;;5.15;90.58
26775;BME280;14362;51.902;7.626;2023-12-20T01:58:52;100929.69;;;5.11;91.00
26775;BME280;14362;51.902;7.626;2023-12-20T02:02:54;100920.13;;;5.08;91.29
26775;BME280;14362;51.902;7.626;2023-12-20T02:06:56;100934.03;;;5.01;91.27
26775;BME280;14362;51.902;7.626;2023-12-20T02:11:00;100925.28;;;4.93;90.90
26775;BME280;14362;51.902;7.626;2023-12-20T02:15:02;100928.72;;;4.89;91.42
26775;BME280;14362;51.902;7.626;2023-12-20T02:19:03;100923.47;;;4.83;91.69
26775;BME280;14362;51.902;7.626;2023-12-20T02:23:08;100923.50;;;4.86;91.26
26775;BME280;14362;51.902;7.626;2023-12-20T02:27:09;100921.75;;;4.86;91.32
26775;BME280;14362;51.902;7.626;2023-12-20T02:31:10;100917.41;;;4.85;91.53
26775;BME280;14362;51.902;7.626;2023-12-20T02:35:12;100933.91;;;4.83;91.29
26775;BME280;14362;51.902;7.626;2023-12-20T02:39:15;100923.50;;;4.84;91.44
26775;BME280;14362;51.902;7.626;2023-12-20T02:43:16;100913.09;;;4.90;91.25
26775;BME280;14362;51.902;7.626;2023-12-20T02:47:18;100919.22;;;4.97;91.66
26775;BME280;14362;51.902;7.626;2023-12-20T02:51:19;100924.44;;;4.99;91.71
26775;BME280;14362;51.902;7.626;2023-12-20T02:55:22;100911.38;;;4.92;91.46
26775;BME280;14362;51.902;7.626;2023-12-20T02:59:23;100913.97;;;4.92;91.09
26775;BME280;14362;51.902;7.626;2023-12-20T03:03:25;100909.63;;;4.93;91.81
26775;BME280;14362;51.902;7.626;2023-12-20T03:07:26;100907.91;;;4.93;90.92
26775;BME280;14362;51.902;7.626;2023-12-20T03:11:29;100913.16;;;5.01;90.85
26775;BME280;14362;51.902;7.626;2023-12-20T03:15:31;100903.56;;;4.99;90.71
26775;BME280;14362;51.902;7.626;2023-12-20T03:19:32;100902.66;;;4.89;90.87
26775;BME280;14362;51.902;7.626;2023-12-20T03:23:33;100900.94;;;4.89;91.10
26775;BME280;14362;51.902;7.626;2023-12-20T03:27:38;100903.53;;;4.89;91.23
26775;BME280;14362;51.902;7.626;2023-12-20T03:31:39;100914.84;;;4.93;90.81
26775;BME280;14362;51.902;7.626;2023-12-20T03:35:41;100907.00;;;4.91;90.95
26775;BME280;14362;51.902;7.626;2023-12-20T03:39:42;100898.31;;;4.89;90.94
26775;BME280;14362;51.902;7.626;2023-12-20T03:43:45;100894.78;;;4.81;90.66
26775;BME280;14362;51.902;7.626;2023-12-20T03:47:47;100890.41;;;4.75;90.69
26775;BME280;14362;51.902;7.626;2023-12-20T03:51:48;100880.84;;;4.76;90.93
26775;BME280;14362;51.902;7.626;2023-12-20T03:55:50;100892.13;;;4.75;90.97
26775;BME280;14362;51.902;7.626;2023-12-20T03:59:53;100876.53;;;4.78;91.06
26775;BME280;14362;51.902;7.626;2023-12-20T04:03:54;100892.13;;;4.75;90.87
26775;BME280;14362;51.902;7.626;2023-12-20T04:07:55;100888.66;;;4.74;90.91
26775;BME280;14362;51.902;7.626;2023-12-20T04:11:57;100882.56;;;4.71;90.90
26775;BME280;14362;51.902;7.626;2023-12-20T04:15:59;100877.34;;;4.69;91.09
26775;BME280;14362;51.902;7.626;2023-12-20T04:20:01;100875.59;;;4.67;91.13
26775;BME280;14362;51.902;7.626;2023-12-20T04:24:03;100888.63;;;4.67;91.02
26775;BME280;14362;51.902;7.626;2023-12-20T04:28:05;100883.41;;;4.70;90.24
26775;BME280;14362;51.902;7.626;2023-12-20T04:32:07;100886.06;;;4.76;90.32
26775;BME280;14362;51.902;7.626;2023-12-20T04:36:09;100900.84;;;4.80;90.18
26775;BME280;14362;51.902;7.626;2023-12-20T04:40:11;100895.69;;;4.82;90.55
26775;BME280;14362;51.902;7.626;2023-12-20T04:44:12;100896.56;;;4.87;90.28
26775;BME280;14362;51.902;7.626;2023-12-20T04:48:15;100887.84;;;4.88;90.21
26775;BME280;14362;51.902;7.626;2023-12-20T04:52:16;100898.28;;;4.86;90.41
26775;BME280;14362;51.902;7.626;2023-12-20T04:56:18;100883.53;;;4.88;89.62
26775;BME280;14362;51.902;7.626;2023-12-20T05:00:19;100881.78;;;4.89;90.28
26775;BME280;14362;51.902;7.626;2023-12-20T05:04:22;100883.53;;;4.90;89.57
26775;BME280;14362;51.902;7.626;2023-12-20T05:08:23;100873.94;;;4.90;89.75
26775;BME280;14362;51.902;7.626;2023-12-20T05:12:25;100871.34;;;4.90;89.74
26775;BME280;14362;51.902;7.626;2023-12-20T05:16:26;100873.09;;;4.90;89.52
26775;BME280;14362;51.902;7.626;2023-12-20T05:20:29;100877.44;;;4.94;89.10
26775;BME280;14362;51.902;7.626;2023-12-20T05:24:30;100882.69;;;5.00;89.35
26775;BME280;14362;51.902;7.626;2023-12-20T05:28:32;100866.16;;;4.98;89.21
26775;BME280;14362;51.902;7.626;2023-12-20T05:32:33;100872.22;;;4.95;88.96
26775;BME280;14362;51.902;7.626;2023-12-20T05:36:36;100867.91;;;4.99;89.04
26775;BME280;14362;51.902;7.626;2023-12-20T05:40:39;100858.31;;;4.95;89.33
26775;BME280;14362;51.902;7.626;2023-12-20T05:44:40;100867.94;;;5.02;89.68
26775;BME280;14362;51.902;7.626;2023-12-20T05:48:41;100874.88;;;4.99;89.27
26775;BME280;14362;51.902;7.626;2023-12-20T05:52:44;100885.31;;;4.99;89.32
26775;BME280;14362;51.902;7.626;2023-12-20T05:56:46;100888.81;;;5.02;89.14
26775;BME280;14362;51.902;7.626;2023-12-20T06:00:47;100886.16;;;5.01;88.60
26775;BME280;14362;51.902;7.626;2023-12-20T06:04:49;100881.84;;;5.04;89.04
26775;BME280;14362;51.902;7.626;2023-12-20T06:08:51;100894.03;;;5.05;89.18
26775;BME280;14362;51.902;7.626;2023-12-20T06:12:53;100881.84;;;5.04;88.63
26775;BME280;14362;51.902;7.626;2023-12-20T06:16:55;100870.53;;;5.04;88.86
26775;BME280;14362;51.902;7.626;2023-12-20T06:20:57;100871.41;;;5.03;88.70
26775;BME280;14362;51.902;7.626;2023-12-20T06:25:00;100875.75;;;5.04;88.81
26775;BME280;14362;51.902;7.626;2023-12-20T06:29:01;100873.13;;;5.01;88.72
26775;BME280;14362;51.902;7.626;2023-12-20T06:33:03;100870.53;;;5.04;89.21
26775;BME280;14362;51.902;7.626;2023-12-20T06:37:04;100882.69;;;5.03;88.83
26775;BME280;14362;51.902;7.626;2023-12-20T06:41:07;100893.13;;;5.03;88.89
26775;BME280;14362;51.902;7.626;2023-12-20T06:45:10;100882.69;;;5.02;88.80
26775;BME280;14362;51.902;7.626;2023-12-20T06:49:12;100883.59;;;5.02;88.83
26775;BME280;14362;51.902;7.626;2023-12-20T06:53:13;100871.41;;;5.01;88.67
26775;BME280;14362;51.902;7.626;2023-12-20T06:57:16;100880.09;;;5.02;88.36
26775;BME280;14362;51.902;7.626;2023-12-20T07:01:17;100883.59;;;5.04;88.35
26775;BME280;14362;51.902;7.626;2023-12-20T07:05:19;100875.75;;;5.05;88.46
26775;BME280;14362;51.902;7.626;2023-12-20T07:09:20;100864.47;;;5.05;88.33
26775;BME280;14362;51.902;7.626;2023-12-20T07:13:23;100869.66;;;5.03;88.53
26775;BME280;14362;51.902;7.626;2023-12-20T07:17:25;100869.66;;;5.03;88.22
26775;BME280;14362;51.902;7.626;2023-12-20T07:21:26;100865.31;;;5.05;88.55
26775;BME280;14362;51.902;7.626;2023-12-20T07:25:27;100863.59;;;5.07;87.88
26775;BME280;14362;51.902;7.626;2023-12-20T07:29:31;100861.84;;;5.11;87.62
26775;BME280;14362;51.902;7.626;2023-12-20T07:33:33;100875.78;;;5.13;87.69
26775;BME280;14362;51.902;7.626;2023-12-20T07:37:34;100882.75;;;5.16;87.86
26775;BME280;14362;51.902;7.626;2023-12-20T07:41:36;100875.78;;;5.16;87.47
26775;BME280;14362;51.902;7.626;2023-12-20T07:45:38;100881.88;;;5.17;87.51
26775;BME280;14362;51.902;7.626;2023-12-20T07:49:40;100874.06;;;5.21;87.25
26775;BME280;14362;51.902;7.626;2023-12-20T07:53:42;100869.72;;;5.22;87.46
26775;BME280;14362;51.902;7.626;2023-12-20T07:57:43;100877.53;;;5.26;87.52
26775;BME280;14362;51.902;7.626;2023-12-20T08:01:46;100871.47;;;5.26;87.63
26775;BME280;14362;51.902;7.626;2023-12-20T08:05:47;100864.53;;;5.28;86.97
26775;BME280;14362;51.902;7.626;2023-12-20T08:09:48;100861.91;;;5.28;87.42
26775;BME280;14362;51.902;7.626;2023-12-20T08:13:51;100861.03;;;5.32;87.71
26775;BME280;14362;51.902;7.626;2023-12-20T08:17:54;100859.31;;;5.37;87.35
26775;BME280;14362;51.902;7.626;2023-12-20T08:21:55;100860.19;;;5.42;86.78
26775;BME280;14362;51.902;7.626;2023-12-20T08:25:57;100861.03;;;5.44;86.83
26775;BME280;14362;51.902;7.626;2023-12-20T08:29:58;100864.53;;;5.45;86.46
26775;BME280;14362;51.902;7.626;2023-12-20T08:34:01;100854.97;;;5.45;86.58
26775;BME280;14362;51.902;7.626;2023-12-20T08:38:03;100868.88;;;5.46;86.61
26775;BME280;14362;51.902;7.626;2023-12-20T08:42:05;100871.50;;;5.52;86.18
26775;BME280;14362;51.902;7.626;2023-12-20T08:46:07;100867.16;;;5.54;86.69
26775;BME280;14362;51.902;7.626;2023-12-20T08:50:11;100853.25;;;5.57;86.70
26775;BME280;14362;51.902;7.626;2023-12-20T08:54:13;100853.25;;;5.55;86.24
26775;BME280;14362;51.902;7.626;2023-12-20T08:58:14;100842.78;;;5.57;86.64
26775;BME280;14362;51.902;7.626;2023-12-20T09:02:16;100831.47;;;5.59;86.71
26775;BME280;14362;51.902;7.626;2023-12-20T09:06:19;100828.84;;;5.63;86.54
26775;BME280;14362;51.902;7.626;2023-12-20T09:10:20;100835.81;;;5.65;86.03
26775;BME280;14362;51.902;7.626;2023-12-20T09:14:23;100822.78;;;5.62;86.18
26775;BME280;14362;51.902;7.626;2023-12-20T09:18:24;100831.47;;;5.63;86.06
26775;BME280;14362;51.902;7.626;2023-12-20T09:22:27;100820.13;;;5.67;86.38
26775;BME280;14362;51.902;7.626;2023-12-20T09:26:28;100815.81;;;5.73;85.96
26775;BME280;14362;51.902;7.626;2023-12-20T09:30:30;100814.94;;;5.77;85.61
26775;BME280;14362;51.902;7.626;2023-12-20T09:34:31;100809.69;;;5.81;85.50
26775;BME280;14362;51.902;7.626;2023-12-20T09:38:34;100807.09;;;5.84;85.69
26775;BME280;14362;51.902;7.626;2023-12-20T09:42:38;100811.41;;;5.85;85.41
26775;BME280;14362;51.902;7.626;2023-12-20T09:46:43;100812.31;;;5.81;86.00
26775;BME280;14362;51.902;7.626;2023-12-20T09:50:45;100820.13;;;5.90;85.90
26775;BME280;14362;51.902;7.626;2023-12-20T09:54:49;100814.03;;;6.08;85.20
26775;BME280;14362;51.902;7.626;2023-12-20T09:58:53;100817.50;;;6.24;84.44
26775;BME280;14362;51.902;7.626;2023-12-20T10:02:56;100818.38;;;6.23;84.49
26775;BME280;14362;51.902;7.626;2023-12-20T10:07:02;100823.59;;;6.24;84.29
26775;BME280;14362;51.902;7.626;2023-12-20T10:11:06;100821.81;;;6.36;83.75
26775;BME280;14362;51.902;7.626;2023-12-20T10:15:08;100821.78;;;6.40;83.61
26775;BME280;14362;51.902;7.626;2023-12-20T10:19:10;100834.91;;;6.37;83.03
26775;BME280;14362;51.902;7.626;2023-12-20T10:23:12;100816.63;;;6.34;84.35
26775;BME280;14362;51.902;7.626;2023-12-20T10:27:18;100817.50;;;6.25;84.23
26775;BME280;14362;51.902;7.626;2023-12-20T10:31:27;100810.53;;;6.12;85.50
26775;BME280;14362;51.902;7.626;2023-12-20T10:35:28;100804.44;;;6.07;85.75
26775;BME280;14362;51.902;7.626;2023-12-20T10:39:30;100812.31;;;6.02;86.42
26775;BME280;14362;51.902;7.626;2023-12-20T10:43:34;100804.47;;;6.02;87.39
26775;BME280;14362;51.902;7.626;2023-12-20T10:47:36;100808.81;;;5.96;86.94
26775;BME280;14362;51.902;7.626;2023-12-20T10:51:38;100800.97;;;5.97;87.30
26775;BME280;14362;51.902;7.626;2023-12-20T10:55:40;100794.00;;;5.94;87.03
26775;BME280;14362;51.902;7.626;2023-12-20T10:59:44;100797.47;;;5.93;87.36
26775;BME280;14362;51.902;7.626;2023-12-20T11:03:49;100814.94;;;5.91;87.28
26775;BME280;14362;51.902;7.626;2023-12-20T11:07:52;100809.66;;;5.98;87.20
26775;BME280;14362;51.902;7.626;2023-12-20T11:12:03;100808.81;;;5.88;87.56
26775;BME280;14362;51.902;7.626;2023-12-20T11:16:08;100798.38;;;5.88;88.13
26775;BME280;14362;51.902;7.626;2023-12-20T11:20:10;100799.25;;;5.84;88.37
26775;BME280;14362;51.902;7.626;2023-12-20T11:24:12;100800.09;;;5.86;88.11
26775;BME280;14362;51.902;7.626;2023-12-20T11:28:14;100783.56;;;5.93;88.42
26775;BME280;14362;51.902;7.626;2023-12-20T11:32:30;100775.72;;;6.08;88.54
26775;BME280;14362;51.902;7.626;2023-12-20T11:36:32;100756.53;;;6.13;88.12
26775;BME280;14362;51.902;7.626;2023-12-20T11:40:34;100756.50;;;6.17;87.93
26775;BME280;14362;51.902;7.626;2023-12-20T11:44:36;100739.97;;;6.12;87.59
26775;BME280;14362;51.902;7.626;2023-12-20T11:48:40;100726.91;;;6.15;87.06
26775;BME280;14362;51.902;7.626;2023-12-20T11:52:41;100725.16;;;6.13;87.85
26775;BME280;14362;51.902;7.626;2023-12-20T11:56:43;100718.13;;;6.27;87.25
26775;BME280;14362;51.902;7.626;2023-12-20T12:00:44;100711.13;;;6.32;87.17
26775;BME280;14362;51.902;7.626;2023-12-20T12:04:48;100717.22;;;6.39;86.92
26775;BME280;14362;51.902;7.626;2023-12-20T12:08:50;100718.00;;;6.58;86.33
26775;BME280;14362;51.902;7.626;2023-12-20T12:12:52;100710.06;;;6.70;86.15
26775;BME280;14362;51.902;7.626;2023-12-20T12:16:54;100697.81;;;6.74;85.83
26775;BME280;14362;51.902;7.626;2023-12-20T12:21:01;100716.13;;;6.79;85.02
26775;BME280;14362;51.902;7.626;2023-12-20T12:25:09;100704.81;;;6.75;85.11
26775;BME280;14362;51.902;7.626;2023-12-20T12:29:11;100703.03;;;6.75;84.66
26775;BME280;14362;51.902;7.626;2023-12-20T12:33:13;100701.31;;;6.73;83.99
26775;BME280;14362;51.902;7.626;2023-12-20T12:37:18;100713.53;;;6.72;84.72
26775;BME280;14362;51.902;7.626;2023-12-20T12:41:19;100716.16;;;6.71;84.82
26775;BME280;14362;51.902;7.626;2023-12-20T12:45:21;100706.56;;;6.74;84.01
26775;BME280;14362;51.902;7.626;2023-12-20T12:49:22;100705.59;;;6.86;83.38
26775;BME280;14362;51.902;7.626;2023-12-20T12:53:25;100721.28;;;6.89;83.16
26775;BME280;14362;51.902;7.626;2023-12-20T12:57:27;100699.47;;;6.89;82.07
26775;BME280;14362;51.902;7.626;2023-12-20T13:01:29;100700.31;;;6.91;82.17
26775;BME280;14362;51.902;7.626;2023-12-20T13:05:30;100691.63;;;6.90;82.68
26775;BME280;14362;51.902;7.626;2023-12-20T13:09:33;100681.16;;;6.86;82.27
26775;BME280;14362;51.902;7.626;2023-12-20T13:13:35;100689.09;;;6.75;83.77
26775;BME280;14362;51.902;7.626;2023-12-20T13:17:36;100695.22;;;6.72;83.52
26775;BME280;14362;51.902;7.626;2023-12-20T13:21:38;100676.88;;;6.74;83.27
26775;BME280;14362;51.902;7.626;2023-12-20T13:25:41;100662.97;;;6.72;83.54
26775;BME280;14362;51.902;7.626;2023-12-20T13:29:42;100647.19;;;6.78;82.96
26775;BME280;14362;51.902;7.626;2023-12-20T13:33:44;100651.56;;;6.78;83.29
26775;BME280;14362;51.902;7.626;2023-12-20T13:37:45;100651.53;;;6.81;83.29
26775;BME280;14362;51.902;7.626;2023-12-20T13:41:48;100663.81;;;6.74;82.36
26775;BME280;14362;51.902;7.626;2023-12-20T13:45:49;100646.34;;;6.78;82.77
26775;BME280;14362;51.902;7.626;2023-12-20T13:49:51;100637.66;;;6.74;83.27
26775;BME280;14362;51.902;7.626;2023-12-20T13:53:52;100637.63;;;6.79;82.23
26775;BME280;14362;51.902;7.626;2023-12-20T13:57:55;100630.69;;;6.74;82.52
26775;BME280;14362;51.902;7.626;2023-12-20T14:01:57;100623.72;;;6.72;83.43
26775;BME280;14362;51.902;7.626;2023-12-20T14:05:59;100626.31;;;6.73;82.78
26775;BME280;14362;51.902;7.626;2023-12-20T14:10:01;100617.53;;;6.82;82.42
26775;BME280;14362;51.902;7.626;2023-12-20T14:14:04;100635.03;;;6.74;83.16
26775;BME280;14362;51.902;7.626;2023-12-20T14:18:06;100642.84;;;6.79;81.86
26775;BME280;14362;51.902;7.626;2023-12-20T14:22:08;100650.75;;;6.71;83.20
26775;BME280;14362;51.902;7.626;2023-12-20T14:26:10;100634.16;;;6.73;82.86
26775;BME280;14362;51.902;7.626;2023-12-20T14:30:15;100641.16;;;6.74;82.93
26775;BME280;14362;51.902;7.626;2023-12-20T14:34:17;100621.97;;;6.72;82.71
26775;BME280;14362;51.902;7.626;2023-12-20T14:38:18;100631.56;;;6.73;83.13
26775;BME280;14362;51.902;7.626;2023-12-20T14:42:20;100643.75;;;6.74;83.24
26775;BME280;14362;51.902;7.626;2023-12-20T14:46:24;100635.91;;;6.76;83.63
26775;BME280;14362;51.902;7.626;2023-12-20T14:50:25;100636.78;;;6.73;83.48
26775;BME280;14362;51.902;7.626;2023-12-20T14:54:27;100643.81;;;6.68;84.17
26775;BME280;14362;51.902;7.626;2023-12-20T14:58:28;100641.19;;;6.67;83.99
26775;BME280;14362;51.902;7.626;2023-12-20T15:02:31;100622.88;;;6.65;84.56
26775;BME280;14362;51.902;7.626;2023-12-20T15:06:33;100639.47;;;6.61;84.30
26775;BME280;14362;51.902;7.626;2023-12-20T15:10:35;100633.41;;;6.59;84.50
26775;BME280;14362;51.902;7.626;2023-12-20T15:14:36;100617.75;;;6.53;85.08
26775;BME280;14362;51.902;7.626;2023-12-20T15:18:39;100623.84;;;6.53;85.10
26775;BME280;14362;51.902;7.626;2023-12-20T15:22:40;100616.03;;;6.50;85.52
26775;BME280;14362;51.902;7.626;2023-12-20T15:26:45;100618.66;;;6.47;86.28
26775;BME280;14362;51.902;7.626;2023-12-20T15:30:47;100624.75;;;6.48;85.86
26775;BME280;14362;51.902;7.626;2023-12-20T15:34:49;100618.66;;;6.46;86.16
26775;BME280;14362;51.902;7.626;2023-12-20T15:38:52;100627.31;;;6.55;85.53
26775;BME280;14362;51.902;7.626;2023-12-20T15:42:53;100632.56;;;6.55;85.85
26775;BME280;14362;51.902;7.626;2023-12-20T15:46:55;100632.56;;;6.51;85.47
26775;BME280;14362;51.902;7.626;2023-12-20T15:50:58;100627.34;;;6.49;86.17
26775;BME280;14362;51.902;7.626;2023-12-20T15:55:00;100625.63;;;6.47;86.59
26775;BME280;14362;51.902;7.626;2023-12-20T15:59:02;100628.28;;;6.43;86.93
26775;BME280;14362;51.902;7.626;2023-12-20T16:03:04;100610.00;;;6.42;86.91
26775;BME280;14362;51.902;7.626;2023-12-20T16:07:06;100623.00;;;6.47;86.58
26775;BME280;14362;51.902;7.626;2023-12-20T16:11:08;100610.81;;;6.44;86.97
26775;BME280;14362;51.902;7.626;2023-12-20T16:15:11;100615.19;;;6.45;86.74
26775;BME280;14362;51.902;7.626;2023-12-20T16:19:12;100625.66;;;6.40;87.32
26775;BME280;14362;51.902;7.626;2023-12-20T16:23:15;100623.91;;;6.42;86.90
26775;BME280;14362;51.902;7.626;2023-12-20T16:27:17;100617.84;;;6.42;87.28
26775;BME280;14362;51.902;7.626;2023-12-20T16:31:18;100618.72;;;6.41;87.29
26775;BME280;14362;51.902;7.626;2023-12-20T16:35:20;100607.38;;;6.39;87.02
26775;BME280;14362;51.902;7.626;2023-12-20T16:39:23;100619.56;;;6.40;87.30
26775;BME280;14362;51.902;7.626;2023-12-20T16:43:24;100621.34;;;6.36;87.48
26775;BME280;14362;51.902;7.626;2023-12-20T16:47:26;100605.66;;;6.39;87.05
26775;BME280;14362;51.902;7.626;2023-12-20T16:51:27;100602.16;;;6.39;87.28
26775;BME280;14362;51.902;7.626;2023-12-20T16:55:31;100603.03;;;6.39;87.43
26775;BME280;14362;51.902;7.626;2023-12-20T16:59:33;100596.03;;;6.41;87.91
26775;BME280;14362;51.902;7.626;2023-12-20T17:03:35;100577.78;;;6.37;87.75
26775;BME280;14362;51.902;7.626;2023-12-20T17:07:36;100583.84;;;6.39;87.82
26775;BME280;14362;51.902;7.626;2023-12-20T17:11:39;100586.47;;;6.37;88.08
26775;BME280;14362;51.902;7.626;2023-12-20T17:15:40;100579.47;;;6.41;87.85
26775;BME280;14362;51.902;7.626;2023-12-20T17:19:42;100569.84;;;6.43;87.59
26775;BME280;14362;51.902;7.626;2023-12-20T17:23:44;100540.25;;;6.42;87.12
26775;BME280;14362;51.902;7.626;2023-12-20T17:27:47;100534.13;;;6.43;87.77
26775;BME280;14362;51.902;7.626;2023-12-20T17:31:49;100541.13;;;6.40;87.46
26775;BME280;14362;51.902;7.626;2023-12-20T17:35:50;100547.22;;;6.39;87.92
26775;BME280;14362;51.902;7.626;2023-12-20T17:39:51;100550.72;;;6.41;88.16
26775;BME280;14362;51.902;7.626;2023-12-20T17:43:54;100528.91;;;6.43;88.06
26775;BME280;14362;51.902;7.626;2023-12-20T17:47:56;100525.41;;;6.41;88.03
26775;BME280;14362;51.902;7.626;2023-12-20T17:51:57;100521.09;;;6.37;88.64
26775;BME280;14362;51.902;7.626;2023-12-20T17:55:59;100509.78;;;6.35;88.64
26775;BME280;14362;51.902;7.626;2023-12-20T18:00:12;100510.63;;;6.37;89.00
26775;BME280;14362;51.902;7.626;2023-12-20T18:04:14;100497.59;;;6.36;88.65
26775;BME280;14362;51.902;7.626;2023-12-20T18:08:19;100490.59;;;6.36;88.56
26775;BME280;14362;51.902;7.626;2023-12-20T18:12:20;100480.97;;;6.41;88.41
26775;BME280;14362;51.902;7.626;2023-12-20T18:16:23;100470.53;;;6.38;89.02
26775;BME280;14362;51.902;7.626;2023-12-20T18:20:24;100467.06;;;6.36;88.73
26775;BME280;14362;51.902;7.626;2023-12-20T18:24:26;100462.66;;;6.41;88.66
26775;BME280;14362;51.902;7.626;2023-12-20T18:28:27;100462.69;;;6.38;88.93
26775;BME280;14362;51.902;7.626;2023-12-20T18:32:30;100457.44;;;6.41;89.54
26775;BME280;14362;51.902;7.626;2023-12-20T18:36:31;100452.19;;;6.41;88.59
26775;BME280;14362;51.902;7.626;2023-12-20T18:40:33;100453.06;;;6.40;89.05
26775;BME280;14362;51.902;7.626;2023-12-20T18:44:34;100446.09;;;6.42;88.69
26775;BME280;14362;51.902;7.626;2023-12-20T18:48:37;100441.66;;;6.49;89.07
26775;BME280;14362;51.902;7.626;2023-12-20T18:52:40;100448.66;;;6.46;89.32
26775;BME280;14362;51.902;7.626;2023-12-20T18:56:42;100427.75;;;6.49;89.37
26775;BME280;14362;51.902;7.626;2023-12-20T19:00:43;100417.28;;;6.49;89.24
26775;BME280;14362;51.902;7.626;2023-12-20T19:04:46;100412.06;;;6.47;89.16
26775;BME280;14362;51.902;7.626;2023-12-20T19:08:47;100417.31;;;6.44;89.71
26775;BME280;14362;51.902;7.626;2023-12-20T19:12:50;100410.31;;;6.46;89.47
26775;BME280;14362;51.902;7.626;2023-12-20T19:16:51;100395.50;;;6.45;89.78
26775;BME280;14362;51.902;7.626;2023-12-20T19:20:55;100381.56;;;6.43;90.36
26775;BME280;14362;51.902;7.626;2023-12-20T19:24:57;100385.94;;;6.42;89.86
26775;BME280;14362;51.902;7.626;2023-12-20T19:28:59;100381.56;;;6.43;90.08
26775;BME280;14362;51.902;7.626;2023-12-20T19:33:00;100384.19;;;6.45;90.09
26775;BME280;14362;51.902;7.626;2023-12-20T19:37:03;100369.31;;;6.48;90.10
26775;BME280;14362;51.902;7.626;2023-12-20T19:41:05;100370.22;;;6.46;90.37
26775;BME280;14362;51.902;7.626;2023-12-20T19:45:07;100371.06;;;6.48;89.94
26775;BME280;14362;51.902;7.626;2023-12-20T19:49:10;100351.03;;;6.50;90.01
26775;BME280;14362;51.902;7.626;2023-12-20T19:53:13;100357.91;;;6.55;90.77
26775;BME280;14362;51.902;7.626;2023-12-20T19:57:14;100345.72;;;6.54;90.19
26775;BME280;14362;51.902;7.626;2023-12-20T20:01:16;100327.44;;;6.53;90.39
26775;BME280;14362;51.902;7.626;2023-12-20T20:05:17;100323.94;;;6.54;90.47
26775;BME280;14362;51.902;7.626;2023-12-20T20:09:20;100308.28;;;6.52;90.48
26775;BME280;14362;51.902;7.626;2023-12-20T20:13:21;100313.50;;;6.51;91.32
26775;BME280;14362;51.902;7.626;2023-12-20T20:17:23;100306.47;;;6.54;91.30
26775;BME280;14362;51.902;7.626;2023-12-20T20:21:25;100295.16;;;6.55;91.03
26775;BME280;14362;51.902;7.626;2023-12-20T20:25:28;100282.06;;;6.55;91.06
26775;BME280;14362;51.902;7.626;2023-12-20T20:29:29;100271.59;;;6.57;90.57
26775;BME280;14362;51.902;7.626;2023-12-20T20:33:31;100267.22;;;6.56;91.37
26775;BME280;14362;51.902;7.626;2023-12-20T20:37:32;100275.91;;;6.59;91.04
26775;BME280;14362;51.902;7.626;2023-12-20T20:41:35;100266.31;;;6.58;91.70
26775;BME280;14362;51.902;7.626;2023-12-20T20:45:36;100276.78;;;6.60;91.37
26775;BME280;14362;51.902;7.626;2023-12-20T20:49:38;100274.13;;;6.63;91.67
26775;BME280;14362;51.902;7.626;2023-12-20T20:53:39;100269.72;;;6.67;91.58
26775;BME280;14362;51.902;7.626;2023-12-20T20:57:42;100252.28;;;6.66;91.56
26775;BME280;14362;51.902;7.626;2023-12-20T21:01:47;100259.22;;;6.70;91.04
26775;BME280;14362;51.902;7.626;2023-12-20T21:05:49;100244.38;;;6.70;91.03
26775;BME280;14362;51.902;7.626;2023-12-20T21:09:50;100243.47;;;6.71;91.16
26775;BME280;14362;51.902;7.626;2023-12-20T21:13:53;100234.78;;;6.71;91.83
26775;BME280;14362;51.902;7.626;2023-12-20T21:17:54;100235.53;;;6.79;92.08
26775;BME280;14362;51.902;7.626;2023-12-20T21:21:56;100228.53;;;6.81;91.77